Time;durP1;ratioP1;P1;durP2;ratioP2;P2;SDS_P1;SDS_P2;PMS_P1;PMS_P2;Temp;Humidity;BMP_temperature;BMP_pressure;BME280_temperature;BME280_humidity;BME280_pressure;Samples;Min_cycle;Max_cycle;Signal;HPM_P1;HPM_P2
2023/08/16 00:00:53;;;;;;;4.80;4.40;;;22.00;99.90;;;;;;5096176;28;20201;-67
2023/08/16 00:03:19;;;;;;;5.57;4.20;;;21.90;99.90;;;;;;5099066;28;20179;-66
2023/08/16 00:05:44;;;;;;;5.80;4.70;;;21.90;99.90;;;;;;5077409;28;20754;-67
2023/08/16 00:08:10;;;;;;;4.73;4.23;;;21.90;99.90;;;;;;5101312;28;20164;-68
2023/08/16 00:10:36;;;;;;;4.80;4.40;;;21.90;99.90;;;;;;5099560;28;20178;-68
2023/08/16 00:13:02;;;;;;;5.90;4.40;;;21.80;99.90;;;;;;5098563;28;20173;-68
2023/08/16 00:15:27;;;;;;;4.63;4.17;;;21.80;99.90;;;;;;5097936;28;20484;-67
2023/08/16 00:17:53;;;;;;;4.43;4.03;;;21.80;99.90;;;;;;5096179;28;20302;-67
2023/08/16 00:20:20;;;;;;;4.50;4.13;;;21.80;99.90;;;;;;5095525;28;20285;-67
2023/08/16 00:22:46;;;;;;;4.23;3.80;;;21.80;99.90;;;;;;5102250;28;20409;-66
2023/08/16 00:25:12;;;;;;;5.03;4.63;;;21.80;99.90;;;;;;5093856;28;20438;-66
2023/08/16 00:27:38;;;;;;;4.53;4.13;;;21.80;99.90;;;;;;5101844;28;20183;-67
2023/08/16 00:30:04;;;;;;;7.23;4.90;;;21.70;99.90;;;;;;5093290;28;20298;-67
2023/08/16 00:32:30;;;;;;;7.10;6.40;;;21.70;99.90;;;;;;5094803;28;20414;-67
2023/08/16 00:34:56;;;;;;;4.37;3.97;;;21.70;99.90;;;;;;5099859;28;20439;-67
2023/08/16 00:37:21;;;;;;;3.30;3.10;;;21.70;99.90;;;;;;5093720;28;20423;-67
2023/08/16 00:39:47;;;;;;;4.30;3.90;;;21.70;99.90;;;;;;5102578;28;20245;-67
2023/08/16 00:42:12;;;;;;;14.60;10.97;;;21.70;99.90;;;;;;5098694;28;20251;-67
2023/08/16 00:44:38;;;;;;;5.90;5.30;;;21.60;99.90;;;;;;5098211;28;20206;-67
2023/08/16 00:47:04;;;;;;;7.33;4.20;;;21.70;99.90;;;;;;5101951;28;20173;-67
2023/08/16 00:49:31;;;;;;;4.80;3.93;;;21.70;99.90;;;;;;5098999;28;20545;-67
2023/08/16 00:51:57;;;;;;;4.67;3.90;;;21.70;99.90;;;;;;5098065;28;20411;-67
2023/08/16 00:54:23;;;;;;;8.13;3.60;;;21.70;99.90;;;;;;5098864;28;20435;-67
2023/08/16 00:56:48;;;;;;;4.00;3.67;;;21.60;99.90;;;;;;5096616;28;20474;-67
2023/08/16 00:59:14;;;;;;;6.43;3.90;;;21.60;99.90;;;;;;5097558;28;20173;-66
2023/08/16 01:01:42;;;;;;;4.37;3.97;;;21.60;99.90;;;;;;5094177;28;20212;-68
2023/08/16 01:04:08;;;;;;;6.03;4.27;;;21.60;99.90;;;;;;5096489;28;20430;-69
2023/08/16 01:06:34;;;;;;;6.03;3.97;;;21.70;99.90;;;;;;5097924;28;20514;-67
2023/08/16 01:09:00;;;;;;;4.13;3.80;;;21.60;99.90;;;;;;5096366;28;20572;-67
2023/08/16 01:11:38;;;;;;;3.97;3.67;;;21.60;99.90;;;;;;5098568;28;20266;-67
2023/08/16 01:14:19;;;;;;;4.30;3.77;;;21.50;99.90;;;;;;5094821;28;20215;-68
2023/08/16 01:16:46;;;;;;;7.17;4.30;;;21.60;99.90;;;;;;5096858;28;20457;-68
2023/08/16 01:19:26;;;;;;;4.80;3.67;;;21.60;99.90;;;;;;5101134;28;20416;-68
2023/08/16 01:22:18;;;;;;;5.10;3.93;;;21.60;99.90;;;;;;5096140;28;20417;-68
2023/08/16 01:25:11;;;;;;;4.60;4.20;;;21.60;99.90;;;;;;5052263;28;20480;-68
2023/08/16 01:27:37;;;;;;;5.10;4.10;;;21.50;99.90;;;;;;5096679;28;20444;-67
2023/08/16 01:30:07;;;;;;;6.90;4.30;;;21.50;99.90;;;;;;5092382;28;20961;-68
2023/08/16 01:32:32;;;;;;;3.87;3.53;;;21.40;99.90;;;;;;5097509;28;20184;-68
2023/08/16 01:34:58;;;;;;;4.60;4.30;;;21.40;99.90;;;;;;5097128;28;20428;-68
2023/08/16 01:37:25;;;;;;;5.20;4.20;;;21.40;99.90;;;;;;5098407;28;20188;-68
2023/08/16 01:39:51;;;;;;;4.40;4.00;;;21.50;99.90;;;;;;5094364;28;20549;-67
2023/08/16 01:42:17;;;;;;;5.97;5.00;;;21.40;99.90;;;;;;5097150;28;20481;-67
2023/08/16 01:44:48;;;;;;;5.73;5.13;;;21.40;99.90;;;;;;5095590;28;20847;-67
2023/08/16 01:47:15;;;;;;;5.60;5.10;;;21.40;99.90;;;;;;5106153;28;20493;-66
2023/08/16 01:49:44;;;;;;;5.23;4.70;;;21.30;99.90;;;;;;5096441;28;20825;-68
2023/08/16 01:52:10;;;;;;;6.27;5.70;;;21.30;99.90;;;;;;5077320;28;20454;-67
2023/08/16 01:54:36;;;;;;;6.87;5.67;;;21.30;99.90;;;;;;5090776;28;20451;-68
2023/08/16 01:57:02;;;;;;;5.77;5.20;;;21.20;99.90;;;;;;5096264;28;20799;-66
2023/08/16 01:59:27;;;;;;;7.60;6.90;;;21.20;99.90;;;;;;5091064;28;20196;-68
2023/08/16 02:01:53;;;;;;;7.27;6.43;;;21.10;99.90;;;;;;5096090;28;20248;-68
2023/08/16 02:04:18;;;;;;;6.43;5.93;;;21.20;99.90;;;;;;5098108;28;20195;-67
2023/08/16 02:06:44;;;;;;;6.67;5.93;;;21.10;99.90;;;;;;5096813;28;20554;-66
2023/08/16 02:09:10;;;;;;;8.10;7.30;;;21.10;99.90;;;;;;5088796;28;20181;-69
2023/08/16 02:11:35;;;;;;;7.27;6.57;;;21.10;99.90;;;;;;5093913;28;20229;-67
2023/08/16 02:14:01;;;;;;;7.53;6.07;;;21.10;99.90;;;;;;5095871;28;20224;-67
2023/08/16 02:16:26;;;;;;;6.43;5.93;;;21.10;99.90;;;;;;5090908;28;20329;-67
2023/08/16 02:18:52;;;;;;;7.00;6.30;;;21.10;99.90;;;;;;5096905;28;20191;-68
2023/08/16 02:21:18;;;;;;;7.50;5.53;;;21.10;99.90;;;;;;5098063;28;20338;-68
2023/08/16 02:23:43;;;;;;;7.33;6.63;;;21.10;99.90;;;;;;5096432;28;20247;-68
2023/08/16 02:26:09;;;;;;;8.57;7.07;;;21.10;99.90;;;;;;5096983;28;20532;-67
2023/08/16 02:28:35;;;;;;;7.80;6.87;;;21.10;99.90;;;;;;5093379;28;20188;-67
2023/08/16 02:31:05;;;;;;;8.00;7.20;;;21.10;99.90;;;;;;5095381;28;20176;-68
2023/08/16 02:33:31;;;;;;;8.50;7.60;;;21.10;99.90;;;;;;5091296;28;20188;-68
2023/08/16 02:35:57;;;;;;;8.07;7.10;;;21.10;99.90;;;;;;5096848;28;20425;-67
2023/08/16 02:38:23;;;;;;;9.17;8.27;;;21.00;99.90;;;;;;5097615;28;20516;-68
2023/08/16 02:40:48;;;;;;;8.53;7.73;;;20.90;99.90;;;;;;5095959;28;20454;-68
2023/08/16 02:43:14;;;;;;;8.70;7.90;;;21.00;99.90;;;;;;5097060;28;20167;-67
2023/08/16 02:45:40;;;;;;;9.23;8.40;;;21.10;99.90;;;;;;5093566;28;20199;-67
2023/08/16 02:48:06;;;;;;;9.10;8.40;;;21.10;99.90;;;;;;5099507;28;20187;-67
2023/08/16 02:50:31;;;;;;;9.33;8.27;;;21.10;99.90;;;;;;5094327;28;20184;-67
2023/08/16 02:52:57;;;;;;;10.37;7.77;;;21.10;99.90;;;;;;5097965;28;20417;-68
2023/08/16 02:55:23;;;;;;;10.30;7.60;;;21.10;99.90;;;;;;5093238;28;20276;-68
2023/08/16 02:57:48;;;;;;;9.63;8.73;;;21.10;99.90;;;;;;5096279;28;20235;-68
2023/08/16 03:00:15;;;;;;;9.70;8.77;;;21.10;99.90;;;;;;5092228;28;20203;-68
2023/08/16 03:02:40;;;;;;;8.63;7.87;;;21.10;99.90;;;;;;5093081;28;20508;-68
2023/08/16 03:05:06;;;;;;;18.07;8.50;;;21.10;99.90;;;;;;5097564;28;20465;-67
2023/08/16 03:07:32;;;;;;;10.37;8.17;;;21.00;99.90;;;;;;5094267;28;20183;-66
2023/08/16 03:09:58;;;;;;;9.40;8.10;;;21.00;99.90;;;;;;5097519;28;20165;-67
2023/08/16 03:12:24;;;;;;;11.00;8.33;;;21.10;99.90;;;;;;5093539;28;20490;-67
2023/08/16 03:14:50;;;;;;;8.97;8.27;;;21.10;99.90;;;;;;5095873;28;20226;-67
2023/08/16 03:17:15;;;;;;;8.63;7.93;;;21.00;99.90;;;;;;5092210;28;20272;-67
2023/08/16 03:19:41;;;;;;;8.37;7.50;;;21.00;99.90;;;;;;5094618;28;20187;-68
2023/08/16 03:22:07;;;;;;;10.47;9.43;;;21.00;99.90;;;;;;5098452;28;20321;-68
2023/08/16 03:24:33;;;;;;;10.63;7.80;;;21.10;99.90;;;;;;5095038;28;20630;-67
2023/08/16 03:26:58;;;;;;;8.80;8.00;;;21.00;99.90;;;;;;5098939;28;20405;-66
2023/08/16 03:29:24;;;;;;;10.47;9.50;;;21.00;99.90;;;;;;5092309;28;20781;-67
2023/08/16 03:31:49;;;;;;;10.33;9.10;;;21.10;99.90;;;;;;5101438;28;20553;-67
2023/08/16 03:34:16;;;;;;;10.90;9.13;;;21.10;99.90;;;;;;5093992;28;20196;-67
2023/08/16 03:36:41;;;;;;;10.50;9.60;;;21.10;99.90;;;;;;5101349;28;20199;-67
2023/08/16 03:39:07;;;;;;;9.77;8.77;;;21.10;99.90;;;;;;5099779;28;20510;-67
2023/08/16 03:41:33;;;;;;;11.90;9.67;;;21.00;99.90;;;;;;5098545;28;20278;-67
2023/08/16 03:44:00;;;;;;;9.53;8.30;;;21.00;99.90;;;;;;5101601;28;20203;-67
2023/08/16 03:46:25;;;;;;;10.90;9.67;;;21.10;99.90;;;;;;5099970;28;20494;-68
2023/08/16 03:48:51;;;;;;;10.00;9.20;;;21.00;99.90;;;;;;5097994;28;20817;-68
2023/08/16 03:51:17;;;;;;;11.93;9.37;;;21.00;99.90;;;;;;5102114;28;20675;-68
2023/08/16 03:53:43;;;;;;;11.30;10.30;;;21.00;99.90;;;;;;5097197;28;20644;-67
2023/08/16 03:56:09;;;;;;;10.57;9.60;;;21.00;99.90;;;;;;5094328;28;20175;-69
2023/08/16 03:58:35;;;;;;;10.97;9.87;;;20.90;99.90;;;;;;5097737;28;20227;-67
2023/08/16 04:01:00;;;;;;;11.30;9.57;;;21.00;99.90;;;;;;5096096;28;20451;-67
2023/08/16 04:03:26;;;;;;;11.63;10.30;;;21.00;99.90;;;;;;5102045;28;20191;-67
2023/08/16 04:05:52;;;;;;;11.53;10.43;;;21.00;99.90;;;;;;5097468;28;20256;-67
2023/08/16 04:08:18;;;;;;;9.87;8.80;;;21.00;99.90;;;;;;5095857;28;20957;-67
2023/08/16 04:10:44;;;;;;;11.50;10.40;;;21.00;99.90;;;;;;5096286;28;20321;-68
2023/08/16 04:13:09;;;;;;;12.57;10.30;;;20.80;99.90;;;;;;5093049;28;20695;-68
2023/08/16 04:15:35;;;;;;;12.13;9.40;;;20.80;99.90;;;;;;5097378;28;20444;-68
2023/08/16 04:18:01;;;;;;;10.47;9.33;;;20.90;99.90;;;;;;5095282;28;20185;-68
2023/08/16 04:20:26;;;;;;;9.53;8.63;;;20.90;99.90;;;;;;5097523;28;20833;-68
2023/08/16 04:22:52;;;;;;;12.27;11.03;;;20.90;99.90;;;;;;5094361;28;20164;-68
2023/08/16 04:25:18;;;;;;;10.40;9.40;;;20.90;99.90;;;;;;5100103;28;20856;-68
2023/08/16 04:27:43;;;;;;;12.60;10.83;;;21.00;99.90;;;;;;5095882;28;20267;-66
2023/08/16 04:30:10;;;;;;;10.10;9.10;;;21.00;99.90;;;;;;5096843;28;20422;-68
2023/08/16 04:32:36;;;;;;;11.03;9.93;;;21.00;99.90;;;;;;5098461;28;20171;-68
2023/08/16 04:35:02;;;;;;;10.83;9.83;;;20.90;99.90;;;;;;5087727;28;20501;-68
2023/08/16 04:37:28;;;;;;;11.53;10.53;;;21.00;99.90;;;;;;5091872;28;20464;-68
2023/08/16 04:39:54;;;;;;;10.27;9.37;;;21.00;99.90;;;;;;5095388;28;20458;-68
2023/08/16 04:42:19;;;;;;;12.20;9.57;;;21.00;99.90;;;;;;5095379;28;20227;-67
2023/08/16 04:44:45;;;;;;;12.93;10.93;;;21.10;99.90;;;;;;5091758;28;20193;-67
2023/08/16 04:47:11;;;;;;;12.33;11.03;;;21.10;99.90;;;;;;5098320;28;20166;-67
2023/08/16 04:49:37;;;;;;;9.67;8.73;;;21.10;99.90;;;;;;5097206;28;20209;-67
2023/08/16 04:52:02;;;;;;;10.30;9.20;;;21.10;99.90;;;;;;5099826;28;20252;-68
2023/08/16 04:54:28;;;;;;;11.80;9.10;;;21.20;99.90;;;;;;5093668;28;20439;-68
2023/08/16 04:56:54;;;;;;;11.77;10.00;;;21.10;99.90;;;;;;5100056;28;20401;-67
2023/08/16 04:59:19;;;;;;;13.10;9.93;;;21.10;99.90;;;;;;5092019;28;20167;-67
2023/08/16 05:01:45;;;;;;;12.27;11.13;;;21.10;99.90;;;;;;5095692;28;20204;-68
2023/08/16 05:04:11;;;;;;;10.00;9.00;;;21.10;99.90;;;;;;5091349;28;20197;-67
2023/08/16 05:06:37;;;;;;;12.40;10.70;;;21.10;99.90;;;;;;5097200;28;20169;-67
2023/08/16 05:09:03;;;;;;;9.27;8.33;;;21.10;99.90;;;;;;5099643;28;20220;-67
2023/08/16 05:11:32;;;;;;;12.73;10.50;;;21.10;99.90;;;;;;5092659;28;20419;-68
2023/08/16 05:13:58;;;;;;;11.30;9.57;;;21.10;99.90;;;;;;5097686;28;20448;-67
2023/08/16 05:16:24;;;;;;;10.47;9.50;;;21.20;99.90;;;;;;5091710;28;20994;-66
2023/08/16 05:18:52;;;;;;;10.63;9.57;;;21.30;99.90;;;;;;5099292;28;20196;-67
2023/08/16 05:21:18;;;;;;;9.80;8.40;;;21.30;99.90;;;;;;5090728;28;20975;-67
2023/08/16 05:23:44;;;;;;;9.97;9.00;;;21.30;99.90;;;;;;5097506;28;20407;-68
2023/08/16 05:26:10;;;;;;;11.20;10.20;;;21.40;99.90;;;;;;5098178;28;20168;-68
2023/08/16 05:28:36;;;;;;;10.40;9.50;;;21.40;99.90;;;;;;5094562;28;20191;-68
2023/08/16 05:31:12;;;;;;;9.63;8.60;;;21.40;99.90;;;;;;5098416;28;20489;-67
2023/08/16 05:33:38;;;;;;;10.47;9.47;;;21.40;99.90;;;;;;5090959;28;20181;-68
2023/08/16 05:36:05;;;;;;;10.90;9.17;;;21.40;99.90;;;;;;5096294;28;20425;-68
2023/08/16 05:38:31;;;;;;;11.13;10.10;;;21.40;99.90;;;;;;5097017;28;20742;-68
2023/08/16 05:40:58;;;;;;;10.23;9.23;;;21.40;99.90;;;;;;5101142;28;20443;-68
2023/08/16 05:43:23;;;;;;;11.50;10.27;;;21.40;99.90;;;;;;5098098;28;20759;-68
2023/08/16 05:45:50;;;;;;;11.93;10.83;;;21.50;99.90;;;;;;5094663;28;20430;-68
2023/08/16 05:48:15;;;;;;;11.30;10.17;;;21.30;99.90;;;;;;5098863;28;20169;-68
2023/08/16 05:50:41;;;;;;;11.90;10.73;;;21.20;99.90;;;;;;5091669;28;20486;-68
2023/08/16 05:53:07;;;;;;;10.80;9.73;;;21.40;99.90;;;;;;5099580;28;20168;-67
2023/08/16 05:55:33;;;;;;;11.83;10.60;;;21.40;99.90;;;;;;5094925;28;20197;-69
2023/08/16 05:57:59;;;;;;;12.87;11.47;;;21.00;99.90;;;;;;5099710;28;20420;-68
2023/08/16 06:00:25;;;;;;;10.30;9.20;;;21.00;99.90;;;;;;5095900;28;20567;-69
2023/08/16 06:02:52;;;;;;;11.60;10.50;;;21.00;99.90;;;;;;5095629;28;20415;-73
2023/08/16 06:05:18;;;;;;;12.73;11.50;;;21.10;99.90;;;;;;5078005;28;20193;-73
2023/08/16 06:07:45;;;;;;;12.03;10.63;;;21.10;99.90;;;;;;5072657;28;20435;-73
2023/08/16 06:10:10;;;;;;;11.30;9.87;;;21.30;99.90;;;;;;5077283;28;20428;-67
2023/08/16 06:12:36;;;;;;;11.70;10.50;;;21.60;99.90;;;;;;5069629;28;20493;-69
2023/08/16 06:15:03;;;;;;;11.17;10.07;;;21.70;99.90;;;;;;5061199;28;20220;-69
2023/08/16 06:17:29;;;;;;;11.73;10.60;;;21.90;99.90;;;;;;5075606;28;20800;-70
2023/08/16 06:19:56;;;;;;;10.40;9.30;;;21.90;99.90;;;;;;5074548;28;20431;-70
2023/08/16 06:22:21;;;;;;;10.90;9.80;;;22.20;99.90;;;;;;5071201;28;20202;-68
2023/08/16 06:24:47;;;;;;;10.37;9.17;;;22.20;99.90;;;;;;5067450;28;20448;-70
2023/08/16 06:27:13;;;;;;;10.37;9.03;;;22.60;99.90;;;;;;5074141;28;20183;-70
2023/08/16 06:29:38;;;;;;;9.93;6.87;;;22.70;99.90;;;;;;5068174;28;20174;-69
2023/08/16 06:32:06;;;;;;;7.97;6.90;;;23.30;99.90;;;;;;5071987;28;20178;-68
2023/08/16 06:34:33;;;;;;;8.20;5.90;;;24.20;99.90;;;;;;5069210;28;20196;-69
2023/08/16 06:36:59;;;;;;;6.50;5.87;;;24.40;99.90;;;;;;5063894;28;20479;-70
2023/08/16 06:39:25;;;;;;;6.80;5.00;;;25.20;99.90;;;;;;5068235;28;20953;-68
2023/08/16 06:41:50;;;;;;;8.77;6.07;;;25.00;99.90;;;;;;5069544;28;20231;-68
2023/08/16 06:44:16;;;;;;;5.50;5.07;;;25.60;99.90;;;;;;5066095;28;20339;-69
2023/08/16 06:46:43;;;;;;;4.97;4.43;;;25.80;99.90;;;;;;5070607;28;20170;-70
2023/08/16 06:49:09;;;;;;;5.37;4.97;;;25.70;99.90;;;;;;5072164;28;20170;-69
2023/08/16 06:51:34;;;;;;;6.37;5.40;;;25.30;99.90;;;;;;5062208;28;20431;-70
2023/08/16 06:54:00;;;;;;;5.70;5.20;;;25.00;99.90;;;;;;5067408;28;20190;-70
2023/08/16 06:56:26;;;;;;;6.80;6.07;;;24.80;99.90;;;;;;5066785;28;20189;-70
2023/08/16 06:58:51;;;;;;;6.97;6.30;;;24.40;99.90;;;;;;5068392;28;20181;-70
2023/08/16 07:01:17;;;;;;;10.77;5.60;;;24.50;99.90;;;;;;5070723;28;20302;-71
2023/08/16 07:03:43;;;;;;;5.73;5.23;;;24.50;99.90;;;;;;5067948;28;20181;-69
2023/08/16 07:06:08;;;;;;;5.97;5.37;;;24.40;99.90;;;;;;5076920;28;20173;-69
2023/08/16 07:08:34;;;;;;;5.27;4.87;;;24.40;99.90;;;;;;5077879;28;20533;-68
2023/08/16 07:11:00;;;;;;;6.37;5.00;;;24.20;99.90;;;;;;5081074;28;20177;-69
2023/08/16 07:13:25;;;;;;;7.37;5.77;;;24.40;99.90;;;;;;5068467;28;20442;-68
2023/08/16 07:15:51;;;;;;;8.57;5.93;;;24.60;99.90;;;;;;5078879;28;20197;-68
2023/08/16 07:18:17;;;;;;;6.67;5.10;;;24.60;99.90;;;;;;5072124;28;20178;-70
2023/08/16 07:20:43;;;;;;;5.73;5.20;;;24.80;99.90;;;;;;5075630;28;20205;-68
2023/08/16 07:23:09;;;;;;;5.70;4.80;;;25.20;99.90;;;;;;5079830;28;20173;-69
2023/08/16 07:25:35;;;;;;;10.67;5.27;;;25.40;99.90;;;;;;5074082;28;20458;-70
2023/08/16 07:28:00;;;;;;;5.03;4.33;;;26.00;99.90;;;;;;5077099;28;20176;-69
2023/08/16 07:30:26;;;;;;;6.47;5.23;;;26.20;99.90;;;;;;5069191;28;20186;-69
2023/08/16 07:32:52;;;;;;;11.03;4.97;;;26.50;99.90;;;;;;5071270;28;20170;-70
2023/08/16 07:35:18;;;;;;;4.37;3.93;;;27.20;99.90;;;;;;5071678;28;20959;-68
2023/08/16 07:37:44;;;;;;;7.37;5.23;;;27.80;99.90;;;;;;5071720;28;20331;-71
2023/08/16 07:40:13;;;;;;;5.67;3.90;;;28.50;99.90;;;;;;5072318;28;20310;-69
2023/08/16 07:42:38;;;;;;;5.33;3.83;;;28.40;99.90;;;;;;5073486;28;20544;-69
2023/08/16 07:45:05;;;;;;;6.13;4.97;;;29.80;99.90;;;;;;5072109;28;21018;-69
2023/08/16 07:47:31;;;;;;;7.77;5.20;;;29.50;99.90;;;;;;5073065;28;20258;-71
2023/08/16 07:49:56;;;;;;;4.67;4.27;;;30.10;99.90;;;;;;5074532;28;20647;-68
2023/08/16 07:52:22;;;;;;;3.80;3.50;;;29.60;99.90;;;;;;5056949;28;21023;-71
2023/08/16 07:54:48;;;;;;;4.03;3.63;;;29.20;99.90;;;;;;5070992;28;20204;-69
2023/08/16 07:57:13;;;;;;;5.03;3.50;;;28.30;99.90;;;;;;5075521;28;20177;-69
2023/08/16 07:59:39;;;;;;;3.97;3.50;;;28.00;99.90;;;;;;5068653;28;20662;-69
2023/08/16 08:02:06;;;;;;;4.30;3.90;;;28.00;99.90;;;;;;5073793;28;20196;-74
2023/08/16 08:04:36;;;;;;;4.07;3.70;;;28.00;99.90;;;;;;5062455;28;20764;-68
2023/08/16 08:07:02;;;;;;;5.20;4.20;;;27.60;99.90;;;;;;5070219;28;20436;-70
2023/08/16 08:09:28;;;;;;;4.87;4.20;;;27.10;99.90;;;;;;5072748;28;20478;-70
2023/08/16 08:11:54;;;;;;;4.17;3.87;;;27.50;99.90;;;;;;5066132;28;21013;-69
2023/08/16 08:14:20;;;;;;;5.27;4.20;;;27.40;99.90;;;;;;5071025;28;20216;-70
2023/08/16 08:16:45;;;;;;;7.63;3.90;;;27.50;99.90;;;;;;5073154;28;20222;-68
2023/08/16 08:19:11;;;;;;;5.03;4.53;;;27.50;99.90;;;;;;5071278;28;20199;-69
2023/08/16 08:21:37;;;;;;;4.77;3.83;;;27.10;99.90;;;;;;5070824;28;20240;-69
2023/08/16 08:24:03;;;;;;;4.17;3.80;;;26.80;99.90;;;;;;5072688;28;20847;-71
2023/08/16 08:26:29;;;;;;;3.83;3.37;;;26.40;99.90;;;;;;5069931;28;20174;-70
2023/08/16 08:28:54;;;;;;;3.50;3.20;;;26.50;99.90;;;;;;5069257;28;20476;-70
2023/08/16 08:31:21;;;;;;;5.70;4.47;;;26.90;99.90;;;;;;5054648;28;20949;-70
2023/08/16 08:33:47;;;;;;;4.53;4.10;;;26.60;99.90;;;;;;5071379;28;20692;-70
2023/08/16 08:36:13;;;;;;;5.73;3.87;;;26.50;99.90;;;;;;5060171;28;20428;-70
2023/08/16 08:38:40;;;;;;;6.77;3.90;;;26.70;99.90;;;;;;5070256;28;20487;-72
2023/08/16 08:41:06;;;;;;;3.50;3.17;;;26.60;99.90;;;;;;5069834;28;20592;-71
2023/08/16 08:43:36;;;;;;;3.30;3.00;;;26.50;99.90;;;;;;5074809;28;20496;-70
2023/08/16 08:46:04;;;;;;;3.43;3.13;;;26.70;99.90;;;;;;5076079;28;27569;-70
2023/08/16 08:48:31;;;;;;;4.33;3.73;;;26.80;99.90;;;;;;5072788;28;20455;-71
2023/08/16 08:50:57;;;;;;;4.20;3.60;;;26.60;99.90;;;;;;5078189;28;20439;-71
2023/08/16 08:53:25;;;;;;;4.20;3.90;;;26.70;99.90;;;;;;5073249;28;20522;-69
2023/08/16 08:55:54;;;;;;;4.63;3.40;;;26.40;99.90;;;;;;5069251;28;21180;-69
2023/08/16 08:58:20;;;;;;;4.23;3.77;;;26.20;99.90;;;;;;5073742;28;20447;-70
2023/08/16 09:00:47;;;;;;;7.00;6.40;;;26.50;99.90;;;;;;5074480;28;20566;-71
2023/08/16 09:03:17;;;;;;;5.20;3.50;;;26.50;99.90;;;;;;5070734;28;20431;-71
2023/08/16 09:05:44;;;;;;;3.70;3.40;;;26.30;99.90;;;;;;5076114;28;20490;-70
2023/08/16 09:08:13;;;;;;;4.70;3.23;;;26.60;99.90;;;;;;5075497;28;20423;-69
2023/08/16 09:10:40;;;;;;;4.30;3.90;;;26.30;99.90;;;;;;5071741;28;20431;-71
2023/08/16 09:13:06;;;;;;;3.90;3.47;;;26.40;99.90;;;;;;5074818;28;20468;-69
2023/08/16 09:15:33;;;;;;;4.67;4.27;;;26.30;99.90;;;;;;5073341;28;20475;-70
2023/08/16 09:18:16;;;;;;;4.30;3.20;;;26.60;99.90;;;;;;5073165;28;20443;-71
2023/08/16 09:20:42;;;;;;;3.50;3.20;;;26.50;99.90;;;;;;5071697;28;20821;-71
2023/08/16 09:23:13;;;;;;;4.60;3.37;;;26.30;99.90;;;;;;5084002;28;20842;-71
2023/08/16 09:25:39;;;;;;;3.60;3.27;;;26.60;99.90;;;;;;5067076;28;20971;-71
2023/08/16 09:28:09;;;;;;;6.10;3.70;;;27.00;99.90;;;;;;5068240;28;20456;-71
2023/08/16 09:30:34;;;;;;;2.50;2.30;;;26.50;99.90;;;;;;5067265;28;20434;-71
2023/08/16 09:33:00;;;;;;;3.43;2.93;;;26.90;99.90;;;;;;5072376;28;20428;-72
2023/08/16 09:35:30;;;;;;;3.50;3.20;;;27.40;99.90;;;;;;5073849;28;20212;-71
2023/08/16 09:37:57;;;;;;;3.33;2.87;;;27.30;99.90;;;;;;5069395;28;20544;-69
2023/08/16 09:40:24;;;;;;;3.27;2.60;;;28.50;99.90;;;;;;5086628;28;20905;-68
2023/08/16 09:42:49;;;;;;;2.70;2.40;;;28.60;99.90;;;;;;5102264;28;20716;-69
2023/08/16 09:45:15;;;;;;;3.20;2.90;;;29.40;99.90;;;;;;5086967;28;20423;-68
2023/08/16 09:47:44;;;;;;;3.13;2.83;;;29.90;99.90;;;;;;5096435;28;20200;-68
2023/08/16 09:50:11;;;;;;;3.00;2.70;;;29.80;99.90;;;;;;5096533;28;20400;-69
2023/08/16 09:52:37;;;;;;;4.77;3.17;;;29.50;99.90;;;;;;5098387;28;20467;-69
2023/08/16 09:55:03;;;;;;;2.83;2.63;;;29.50;99.90;;;;;;5092282;28;20422;-68
2023/08/16 09:57:30;;;;;;;3.70;2.93;;;29.80;99.90;;;;;;5084809;28;20197;-69
2023/08/16 09:59:56;;;;;;;3.57;2.80;;;30.20;99.90;;;;;;5079881;28;20403;-68
2023/08/16 10:02:22;;;;;;;3.30;2.63;;;28.60;99.90;;;;;;5082976;28;20912;-68
2023/08/16 10:04:50;;;;;;;3.10;2.80;;;29.00;99.90;;;;;;5082426;28;20520;-69
2023/08/16 10:07:17;;;;;;;3.53;3.23;;;29.30;99.90;;;;;;5081105;28;20169;-69
2023/08/16 10:09:42;;;;;;;5.53;3.50;;;29.00;99.90;;;;;;5075931;28;20507;-69
2023/08/16 10:12:09;;;;;;;3.83;3.53;;;28.60;99.90;;;;;;5081861;28;20460;-68
2023/08/16 10:14:35;;;;;;;4.13;2.90;;;28.80;99.90;;;;;;5077737;28;20691;-69
2023/08/16 10:17:06;;;;;;;4.10;3.20;;;28.70;99.90;;;;;;5082648;28;20462;-69
2023/08/16 10:19:34;;;;;;;3.97;3.57;;;27.50;99.90;;;;;;5085073;28;20177;-69
2023/08/16 10:22:00;;;;;;;3.90;3.60;;;27.90;99.90;;;;;;5067583;28;21139;-69
2023/08/16 10:24:33;;;;;;;3.83;3.53;;;27.90;99.90;;;;;;5088465;28;20436;-70
2023/08/16 10:27:03;;;;;;;4.77;3.80;;;27.70;99.90;;;;;;5078692;28;20795;-68
2023/08/16 10:29:35;;;;;;;3.60;3.40;;;27.80;99.90;;;;;;5082958;28;20962;-68
2023/08/16 10:32:02;;;;;;;3.70;3.40;;;27.80;99.90;;;;;;5083468;28;20750;-70
2023/08/16 10:34:28;;;;;;;4.10;3.80;;;27.70;99.90;;;;;;5079243;28;20423;-70
2023/08/16 10:36:54;;;;;;;5.53;4.40;;;27.20;99.90;;;;;;5079079;28;20405;-69
2023/08/16 10:39:22;;;;;;;3.63;3.17;;;26.90;99.90;;;;;;5079982;28;20940;-70
2023/08/16 10:41:50;;;;;;;5.20;4.70;;;26.90;99.90;;;;;;5078232;28;20894;-70
2023/08/16 10:44:23;;;;;;;3.73;3.43;;;27.30;99.90;;;;;;5074880;28;20519;-70
2023/08/16 10:46:52;;;;;;;19.23;17.30;;;27.60;99.90;;;;;;5076890;28;20455;-70
2023/08/16 10:49:19;;;;;;;4.13;3.77;;;27.60;99.90;;;;;;5080423;28;20921;-69
2023/08/16 10:51:53;;;;;;;3.83;2.80;;;27.40;99.90;;;;;;5078852;28;20416;-70
2023/08/16 10:54:30;;;;;;;16.83;15.03;;;27.30;99.90;;;;;;5080207;28;20546;-72
2023/08/16 10:57:04;;;;;;;3.53;3.00;;;27.40;99.90;;;;;;5083465;28;20413;-70
2023/08/16 10:59:37;;;;;;;2.87;2.60;;;27.10;99.90;;;;;;5074720;28;20481;-69
2023/08/16 11:02:10;;;;;;;5.07;4.43;;;27.00;99.90;;;;;;5081599;28;20483;-69
2023/08/16 11:04:37;;;;;;;4.20;3.37;;;27.30;99.90;;;;;;5076411;28;20479;-70
2023/08/16 11:07:07;;;;;;;5.80;5.20;;;27.30;99.90;;;;;;5081715;28;20762;-70
2023/08/16 11:09:33;;;;;;;3.17;2.90;;;27.50;99.90;;;;;;5084221;28;20917;-71
2023/08/16 11:12:03;;;;;;;3.60;3.00;;;27.90;99.90;;;;;;5081686;28;20620;-71
2023/08/16 11:14:29;;;;;;;4.03;3.63;;;27.80;99.90;;;;;;5078674;28;20289;-69
2023/08/16 11:16:55;;;;;;;5.83;4.53;;;27.60;99.90;;;;;;5079432;28;20441;-70
2023/08/16 11:19:22;;;;;;;3.73;3.33;;;27.50;99.90;;;;;;5081429;28;20925;-71
2023/08/16 11:21:48;;;;;;;3.40;3.10;;;27.40;99.90;;;;;;5080420;28;20451;-70
2023/08/16 11:24:13;;;;;;;3.40;3.10;;;27.60;99.90;;;;;;5083177;28;20524;-71
2023/08/16 11:26:39;;;;;;;3.60;2.80;;;28.00;99.90;;;;;;5077761;28;20780;-71
2023/08/16 11:29:05;;;;;;;3.50;3.20;;;28.20;99.90;;;;;;5079724;28;20226;-71
2023/08/16 11:31:34;;;;;;;4.37;3.97;;;28.30;99.90;;;;;;5079729;28;20174;-70
2023/08/16 11:33:59;;;;;;;3.20;2.90;;;28.20;99.90;;;;;;5082935;28;20424;-70
2023/08/16 11:36:25;;;;;;;3.93;3.50;;;28.30;99.90;;;;;;5086318;28;20782;-71
2023/08/16 11:38:51;;;;;;;4.27;3.70;;;28.40;99.90;;;;;;5073723;28;20188;-70
2023/08/16 11:41:19;;;;;;;3.20;3.00;;;27.90;99.90;;;;;;5077474;28;20196;-69
2023/08/16 11:43:45;;;;;;;4.47;3.80;;;27.80;99.90;;;;;;5076895;28;20894;-71
2023/08/16 11:46:10;;;;;;;4.13;2.87;;;27.70;99.90;;;;;;5082921;28;20427;-71
2023/08/16 11:48:37;;;;;;;3.10;2.80;;;27.50;99.90;;;;;;5090441;28;20207;-71
2023/08/16 11:51:03;;;;;;;3.17;2.97;;;27.40;99.90;;;;;;5079906;28;20412;-70
2023/08/16 11:53:32;;;;;;;3.50;3.30;;;27.50;99.90;;;;;;5079776;28;20411;-71
2023/08/16 11:56:08;;;;;;;5.87;5.33;;;27.70;99.90;;;;;;5085431;28;20503;-71
2023/08/16 11:58:47;;;;;;;2.90;2.70;;;27.60;99.90;;;;;;5084317;28;20453;-70
2023/08/16 12:01:16;;;;;;;6.47;5.87;;;27.60;99.90;;;;;;5092652;28;20983;-71
2023/08/16 12:03:46;;;;;;;3.87;3.57;;;27.60;99.90;;;;;;5095326;28;20415;-69
2023/08/16 12:06:12;;;;;;;4.63;4.23;;;27.70;99.90;;;;;;5096047;28;20524;-70
2023/08/16 12:08:52;;;;;;;2.93;2.73;;;27.90;99.90;;;;;;5087379;28;20862;-70
2023/08/16 12:11:35;;;;;;;3.80;3.40;;;27.60;99.90;;;;;;5092844;28;20391;-71
2023/08/16 12:14:03;;;;;;;3.27;2.97;;;27.60;99.90;;;;;;5090115;28;20447;-71
2023/08/16 12:16:30;;;;;;;4.60;4.20;;;27.60;99.90;;;;;;5092314;28;20790;-69
2023/08/16 12:18:57;;;;;;;8.67;6.37;;;27.90;99.90;;;;;;5092130;28;20909;-68
2023/08/16 12:21:22;;;;;;;3.13;2.87;;;28.30;99.90;;;;;;5092320;28;20546;-69
2023/08/16 12:23:48;;;;;;;6.30;5.70;;;27.80;99.90;;;;;;5091927;28;20515;-69
2023/08/16 12:26:14;;;;;;;4.80;3.67;;;27.80;99.90;;;;;;5092064;28;20196;-71
2023/08/16 12:28:40;;;;;;;5.17;4.73;;;28.40;99.90;;;;;;5092072;28;20161;-71
2023/08/16 12:31:06;;;;;;;6.43;2.83;;;28.60;99.90;;;;;;5092268;28;20483;-70
2023/08/16 12:33:32;;;;;;;3.07;2.87;;;28.70;99.90;;;;;;5090406;28;20463;-70
2023/08/16 12:35:58;;;;;;;3.90;3.60;;;28.70;99.90;;;;;;5092142;28;20212;-70
2023/08/16 12:38:24;;;;;;;3.93;3.63;;;28.30;99.90;;;;;;5091558;28;20256;-72
2023/08/16 12:40:49;;;;;;;3.93;3.40;;;28.50;99.90;;;;;;5092545;28;21003;-70